sensor_id;sensor_type;location;lat;lon;timestamp;P1;durP1;ratioP1;P2;durP2;ratioP2
24357;SDS011;13668;52.154;5.580;2022-09-09T00:00:24;1.75;;;1.40;;
24357;SDS011;13668;52.154;5.580;2022-09-09T00:06:21;1.65;;;1.55;;
24357;SDS011;13668;52.154;5.580;2022-09-09T00:08:18;1.90;;;1.27;;
24357;SDS011;13668;52.154;5.580;2022-09-09T00:10:45;2.83;;;1.48;;
24357;SDS011;13668;52.154;5.580;2022-09-09T00:13:20;1.35;;;1.10;;
24357;SDS011;13668;52.154;5.580;2022-09-09T00:15:59;2.33;;;1.38;;
24357;SDS011;13668;52.154;5.580;2022-09-09T00:18:31;4.10;;;1.52;;
24357;SDS011;13668;52.154;5.580;2022-09-09T00:21:08;2.45;;;1.45;;
24357;SDS011;13668;52.154;5.580;2022-09-09T00:23:40;2.20;;;1.70;;
24357;SDS011;13668;52.154;5.580;2022-09-09T00:26:27;2.47;;;1.95;;
24357;SDS011;13668;52.154;5.580;2022-09-09T00:29:00;1.67;;;1.58;;
24357;SDS011;13668;52.154;5.580;2022-09-09T00:31:30;2.35;;;1.70;;
24357;SDS011;13668;52.154;5.580;2022-09-09T00:33:59;3.78;;;1.70;;
24357;SDS011;13668;52.154;5.580;2022-09-09T00:36:29;2.45;;;2.17;;
24357;SDS011;13668;52.154;5.580;2022-09-09T00:38:59;1.80;;;1.70;;
24357;SDS011;13668;52.154;5.580;2022-09-09T00:44:03;1.90;;;1.80;;
24357;SDS011;13668;52.154;5.580;2022-09-09T00:46:41;2.78;;;2.35;;
24357;SDS011;13668;52.154;5.580;2022-09-09T00:49:18;4.50;;;2.40;;
24357;SDS011;13668;52.154;5.580;2022-09-09T00:51:54;3.95;;;3.20;;
24357;SDS011;13668;52.154;5.580;2022-09-09T00:54:38;5.88;;;3.10;;
24357;SDS011;13668;52.154;5.580;2022-09-09T00:59:42;5.85;;;3.58;;
24357;SDS011;13668;52.154;5.580;2022-09-09T01:04:58;3.95;;;3.65;;
24357;SDS011;13668;52.154;5.580;2022-09-09T01:07:26;7.07;;;3.60;;
24357;SDS011;13668;52.154;5.580;2022-09-09T01:17:33;5.53;;;4.30;;
24357;SDS011;13668;52.154;5.580;2022-09-09T01:22:52;5.88;;;4.53;;
24357;SDS011;13668;52.154;5.580;2022-09-09T01:25:56;5.03;;;4.57;;
24357;SDS011;13668;52.154;5.580;2022-09-09T01:28:22;5.00;;;4.60;;
24357;SDS011;13668;52.154;5.580;2022-09-09T01:30:51;5.28;;;4.35;;
24357;SDS011;13668;52.154;5.580;2022-09-09T01:33:17;4.50;;;4.07;;
24357;SDS011;13668;52.154;5.580;2022-09-09T01:38:28;4.97;;;4.03;;
24357;SDS011;13668;52.154;5.580;2022-09-09T01:40:54;4.90;;;4.00;;
24357;SDS011;13668;52.154;5.580;2022-09-09T01:43:20;6.75;;;4.72;;
24357;SDS011;13668;52.154;5.580;2022-09-09T01:45:47;4.53;;;4.07;;
24357;SDS011;13668;52.154;5.580;2022-09-09T01:48:14;3.92;;;3.53;;
24357;SDS011;13668;52.154;5.580;2022-09-09T01:50:41;5.00;;;4.47;;
24357;SDS011;13668;52.154;5.580;2022-09-09T01:53:06;6.13;;;3.65;;
24357;SDS011;13668;52.154;5.580;2022-09-09T01:55:39;4.55;;;3.42;;
24357;SDS011;13668;52.154;5.580;2022-09-09T01:58:22;4.93;;;4.10;;
24357;SDS011;13668;52.154;5.580;2022-09-09T02:01:06;4.40;;;3.90;;
24357;SDS011;13668;52.154;5.580;2022-09-09T02:03:33;6.10;;;4.00;;
24357;SDS011;13668;52.154;5.580;2022-09-09T02:08:47;4.93;;;3.78;;
24357;SDS011;13668;52.154;5.580;2022-09-09T02:11:18;4.07;;;3.67;;
24357;SDS011;13668;52.154;5.580;2022-09-09T02:13:45;5.32;;;4.05;;
24357;SDS011;13668;52.154;5.580;2022-09-09T02:16:18;4.95;;;3.97;;
24357;SDS011;13668;52.154;5.580;2022-09-09T02:18:51;6.28;;;4.03;;
24357;SDS011;13668;52.154;5.580;2022-09-09T02:21:18;5.57;;;4.10;;
24357;SDS011;13668;52.154;5.580;2022-09-09T02:23:45;8.05;;;4.50;;
24357;SDS011;13668;52.154;5.580;2022-09-09T02:26:12;4.90;;;4.50;;
24357;SDS011;13668;52.154;5.580;2022-09-09T02:28:44;5.05;;;4.55;;
24357;SDS011;13668;52.154;5.580;2022-09-09T02:31:11;7.50;;;5.22;;
24357;SDS011;13668;52.154;5.580;2022-09-09T02:33:40;6.15;;;4.50;;
24357;SDS011;13668;52.154;5.580;2022-09-09T02:36:07;6.22;;;5.57;;
24357;SDS011;13668;52.154;5.580;2022-09-09T02:38:35;5.35;;;4.85;;
24357;SDS011;13668;52.154;5.580;2022-09-09T02:41:02;5.60;;;5.07;;
24357;SDS011;13668;52.154;5.580;2022-09-09T02:43:32;6.95;;;6.22;;
24357;SDS011;13668;52.154;5.580;2022-09-09T02:48:55;7.15;;;6.05;;
24357;SDS011;13668;52.154;5.580;2022-09-09T02:56:21;6.93;;;5.32;;
24357;SDS011;13668;52.154;5.580;2022-09-09T02:58:49;5.97;;;5.38;;
24357;SDS011;13668;52.154;5.580;2022-09-09T03:01:17;5.97;;;5.40;;
24357;SDS011;13668;52.154;5.580;2022-09-09T03:03:42;5.28;;;4.80;;
24357;SDS011;13668;52.154;5.580;2022-09-09T03:06:09;5.38;;;4.70;;
24357;SDS011;13668;52.154;5.580;2022-09-09T03:08:36;6.18;;;5.57;;
24357;SDS011;13668;52.154;5.580;2022-09-09T03:11:02;5.43;;;4.93;;
24357;SDS011;13668;52.154;5.580;2022-09-09T03:13:28;6.30;;;4.82;;
24357;SDS011;13668;52.154;5.580;2022-09-09T03:15:54;5.97;;;5.07;;
24357;SDS011;13668;52.154;5.580;2022-09-09T03:18:20;6.18;;;5.18;;
24357;SDS011;13668;52.154;5.580;2022-09-09T03:20:47;5.68;;;5.05;;
24357;SDS011;13668;52.154;5.580;2022-09-09T03:23:13;6.07;;;5.38;;
24357;SDS011;13668;52.154;5.580;2022-09-09T03:25:39;6.63;;;6.03;;
24357;SDS011;13668;52.154;5.580;2022-09-09T03:28:11;6.88;;;5.38;;
24357;SDS011;13668;52.154;5.580;2022-09-09T03:30:37;6.63;;;4.90;;
24357;SDS011;13668;52.154;5.580;2022-09-09T03:33:03;6.78;;;4.93;;
24357;SDS011;13668;52.154;5.580;2022-09-09T03:35:29;6.47;;;5.70;;
24357;SDS011;13668;52.154;5.580;2022-09-09T03:37:55;5.45;;;4.93;;
24357;SDS011;13668;52.154;5.580;2022-09-09T03:40:21;8.70;;;5.55;;
24357;SDS011;13668;52.154;5.580;2022-09-09T03:42:47;7.40;;;5.50;;
24357;SDS011;13668;52.154;5.580;2022-09-09T03:45:13;5.07;;;4.68;;
24357;SDS011;13668;52.154;5.580;2022-09-09T03:47:39;6.07;;;5.45;;
24357;SDS011;13668;52.154;5.580;2022-09-09T03:50:06;6.45;;;5.25;;
24357;SDS011;13668;52.154;5.580;2022-09-09T03:52:38;5.28;;;4.78;;
24357;SDS011;13668;52.154;5.580;2022-09-09T03:55:04;5.78;;;5.22;;
24357;SDS011;13668;52.154;5.580;2022-09-09T03:57:31;6.70;;;5.47;;
24357;SDS011;13668;52.154;5.580;2022-09-09T03:59:59;6.10;;;5.50;;
24357;SDS011;13668;52.154;5.580;2022-09-09T04:02:26;6.65;;;5.30;;
24357;SDS011;13668;52.154;5.580;2022-09-09T04:04:51;6.53;;;5.43;;
24357;SDS011;13668;52.154;5.580;2022-09-09T04:07:17;7.80;;;5.75;;
24357;SDS011;13668;52.154;5.580;2022-09-09T04:09:43;9.23;;;5.90;;
24357;SDS011;13668;52.154;5.580;2022-09-09T04:12:09;6.10;;;5.45;;
24357;SDS011;13668;52.154;5.580;2022-09-09T04:14:38;9.00;;;5.68;;
24357;SDS011;13668;52.154;5.580;2022-09-09T04:17:04;6.07;;;5.32;;
24357;SDS011;13668;52.154;5.580;2022-09-09T04:19:31;9.13;;;5.50;;
24357;SDS011;13668;52.154;5.580;2022-09-09T04:21:57;8.05;;;5.43;;
24357;SDS011;13668;52.154;5.580;2022-09-09T04:24:23;7.40;;;5.10;;
24357;SDS011;13668;52.154;5.580;2022-09-09T04:26:52;7.85;;;5.57;;
24357;SDS011;13668;52.154;5.580;2022-09-09T04:29:18;7.32;;;6.03;;
24357;SDS011;13668;52.154;5.580;2022-09-09T04:31:44;6.88;;;5.78;;
24357;SDS011;13668;52.154;5.580;2022-09-09T04:34:10;9.38;;;5.80;;
24357;SDS011;13668;52.154;5.580;2022-09-09T04:36:36;8.05;;;6.05;;
24357;SDS011;13668;52.154;5.580;2022-09-09T04:39:02;9.02;;;5.32;;
24357;SDS011;13668;52.154;5.580;2022-09-09T04:41:28;6.65;;;5.60;;
24357;SDS011;13668;52.154;5.580;2022-09-09T04:43:56;8.38;;;5.32;;
24357;SDS011;13668;52.154;5.580;2022-09-09T04:46:22;7.45;;;5.47;;
24357;SDS011;13668;52.154;5.580;2022-09-09T04:48:49;7.95;;;5.75;;
24357;SDS011;13668;52.154;5.580;2022-09-09T04:51:15;6.55;;;5.72;;
24357;SDS011;13668;52.154;5.580;2022-09-09T04:53:41;6.32;;;5.35;;
24357;SDS011;13668;52.154;5.580;2022-09-09T04:56:09;6.88;;;5.63;;
24357;SDS011;13668;52.154;5.580;2022-09-09T04:58:35;8.73;;;6.00;;
24357;SDS011;13668;52.154;5.580;2022-09-09T05:01:05;6.10;;;5.53;;
24357;SDS011;13668;52.154;5.580;2022-09-09T05:03:31;8.55;;;5.35;;
24357;SDS011;13668;52.154;5.580;2022-09-09T05:06:07;5.60;;;5.10;;
24357;SDS011;13668;52.154;5.580;2022-09-09T05:08:35;6.88;;;5.78;;
24357;SDS011;13668;52.154;5.580;2022-09-09T05:11:01;6.05;;;4.80;;
24357;SDS011;13668;52.154;5.580;2022-09-09T05:13:28;5.93;;;5.00;;
24357;SDS011;13668;52.154;5.580;2022-09-09T05:15:56;6.68;;;5.10;;
24357;SDS011;13668;52.154;5.580;2022-09-09T05:18:22;6.18;;;5.40;;
24357;SDS011;13668;52.154;5.580;2022-09-09T05:20:49;8.45;;;5.28;;
24357;SDS011;13668;52.154;5.580;2022-09-09T05:23:16;5.18;;;4.68;;
24357;SDS011;13668;52.154;5.580;2022-09-09T05:25:42;9.57;;;5.50;;
24357;SDS011;13668;52.154;5.580;2022-09-09T05:28:08;8.48;;;5.65;;
24357;SDS011;13668;52.154;5.580;2022-09-09T05:30:34;8.98;;;5.13;;
24357;SDS011;13668;52.154;5.580;2022-09-09T05:33:00;7.57;;;4.95;;
24357;SDS011;13668;52.154;5.580;2022-09-09T05:35:26;5.68;;;5.15;;
24357;SDS011;13668;52.154;5.580;2022-09-09T05:37:52;6.18;;;5.03;;
24357;SDS011;13668;52.154;5.580;2022-09-09T05:40:19;6.63;;;4.97;;
24357;SDS011;13668;52.154;5.580;2022-09-09T05:42:46;8.98;;;4.65;;
24357;SDS011;13668;52.154;5.580;2022-09-09T05:45:12;6.68;;;4.70;;
24357;SDS011;13668;52.154;5.580;2022-09-09T05:47:38;7.28;;;4.63;;
24357;SDS011;13668;52.154;5.580;2022-09-09T05:50:04;5.93;;;4.45;;
24357;SDS011;13668;52.154;5.580;2022-09-09T05:52:30;6.78;;;4.60;;
24357;SDS011;13668;52.154;5.580;2022-09-09T05:54:56;6.05;;;4.55;;
24357;SDS011;13668;52.154;5.580;2022-09-09T05:57:24;5.45;;;4.10;;
24357;SDS011;13668;52.154;5.580;2022-09-09T05:59:50;9.27;;;4.50;;
24357;SDS011;13668;52.154;5.580;2022-09-09T06:02:16;8.52;;;4.43;;
24357;SDS011;13668;52.154;5.580;2022-09-09T06:04:42;8.73;;;4.57;;
24357;SDS011;13668;52.154;5.580;2022-09-09T06:07:07;6.13;;;4.63;;
24357;SDS011;13668;52.154;5.580;2022-09-09T06:09:33;10.77;;;4.70;;
24357;SDS011;13668;52.154;5.580;2022-09-09T06:11:59;5.72;;;4.60;;
24357;SDS011;13668;52.154;5.580;2022-09-09T06:14:25;6.80;;;4.03;;
24357;SDS011;13668;52.154;5.580;2022-09-09T06:16:52;7.40;;;4.15;;
24357;SDS011;13668;52.154;5.580;2022-09-09T06:19:18;9.40;;;5.20;;
24357;SDS011;13668;52.154;5.580;2022-09-09T06:21:48;6.95;;;4.32;;
24357;SDS011;13668;52.154;5.580;2022-09-09T06:24:15;6.07;;;3.78;;
24357;SDS011;13668;52.154;5.580;2022-09-09T06:26:42;6.57;;;3.90;;
24357;SDS011;13668;52.154;5.580;2022-09-09T06:29:08;5.55;;;3.55;;
24357;SDS011;13668;52.154;5.580;2022-09-09T06:31:35;8.40;;;3.85;;
24357;SDS011;13668;52.154;5.580;2022-09-09T06:34:02;6.93;;;4.32;;
24357;SDS011;13668;52.154;5.580;2022-09-09T06:36:30;7.75;;;3.92;;
24357;SDS011;13668;52.154;5.580;2022-09-09T06:38:56;8.35;;;3.58;;
24357;SDS011;13668;52.154;5.580;2022-09-09T06:41:24;7.93;;;3.90;;
24357;SDS011;13668;52.154;5.580;2022-09-09T06:43:51;8.48;;;4.18;;
24357;SDS011;13668;52.154;5.580;2022-09-09T06:46:18;3.50;;;3.20;;
24357;SDS011;13668;52.154;5.580;2022-09-09T06:48:44;8.63;;;4.63;;
24357;SDS011;13668;52.154;5.580;2022-09-09T06:51:15;6.22;;;3.70;;
24357;SDS011;13668;52.154;5.580;2022-09-09T06:53:42;6.10;;;3.40;;
24357;SDS011;13668;52.154;5.580;2022-09-09T06:56:21;6.70;;;3.75;;
24357;SDS011;13668;52.154;5.580;2022-09-09T06:58:48;9.00;;;3.50;;
24357;SDS011;13668;52.154;5.580;2022-09-09T07:01:15;9.68;;;3.60;;
24357;SDS011;13668;52.154;5.580;2022-09-09T07:03:42;7.57;;;3.15;;
24357;SDS011;13668;52.154;5.580;2022-09-09T07:06:13;6.15;;;3.45;;
24357;SDS011;13668;52.154;5.580;2022-09-09T07:08:43;7.97;;;3.65;;
24357;SDS011;13668;52.154;5.580;2022-09-09T07:11:09;6.60;;;3.80;;
24357;SDS011;13668;52.154;5.580;2022-09-09T07:13:36;7.95;;;3.13;;
24357;SDS011;13668;52.154;5.580;2022-09-09T07:16:11;6.18;;;3.83;;
24357;SDS011;13668;52.154;5.580;2022-09-09T07:18:38;6.03;;;3.25;;
24357;SDS011;13668;52.154;5.580;2022-09-09T07:21:04;5.47;;;2.92;;
24357;SDS011;13668;52.154;5.580;2022-09-09T07:23:31;8.98;;;2.92;;
24357;SDS011;13668;52.154;5.580;2022-09-09T07:25:57;8.60;;;3.05;;
24357;SDS011;13668;52.154;5.580;2022-09-09T07:28:23;7.40;;;2.90;;
24357;SDS011;13668;52.154;5.580;2022-09-09T07:30:53;6.85;;;3.05;;
24357;SDS011;13668;52.154;5.580;2022-09-09T07:33:22;6.60;;;2.85;;
24357;SDS011;13668;52.154;5.580;2022-09-09T07:35:49;6.85;;;3.17;;
24357;SDS011;13668;52.154;5.580;2022-09-09T07:38:14;8.25;;;3.50;;
24357;SDS011;13668;52.154;5.580;2022-09-09T07:40:40;6.63;;;2.65;;
24357;SDS011;13668;52.154;5.580;2022-09-09T07:43:06;7.38;;;2.85;;
24357;SDS011;13668;52.154;5.580;2022-09-09T07:45:33;5.97;;;3.22;;
24357;SDS011;13668;52.154;5.580;2022-09-09T07:48:00;9.32;;;3.47;;
24357;SDS011;13668;52.154;5.580;2022-09-09T07:50:26;9.98;;;3.05;;
24357;SDS011;13668;52.154;5.580;2022-09-09T07:52:52;11.55;;;3.58;;
24357;SDS011;13668;52.154;5.580;2022-09-09T07:55:19;5.68;;;3.05;;
24357;SDS011;13668;52.154;5.580;2022-09-09T07:57:45;5.78;;;3.05;;
24357;SDS011;13668;52.154;5.580;2022-09-09T08:00:11;10.63;;;3.83;;
24357;SDS011;13668;52.154;5.580;2022-09-09T08:02:39;6.28;;;3.17;;
24357;SDS011;13668;52.154;5.580;2022-09-09T08:05:05;9.68;;;2.72;;
24357;SDS011;13668;52.154;5.580;2022-09-09T08:07:31;7.63;;;2.65;;
24357;SDS011;13668;52.154;5.580;2022-09-09T08:09:57;6.30;;;2.80;;
24357;SDS011;13668;52.154;5.580;2022-09-09T08:12:23;5.70;;;3.00;;
24357;SDS011;13668;52.154;5.580;2022-09-09T08:14:49;11.95;;;3.10;;
24357;SDS011;13668;52.154;5.580;2022-09-09T08:17:16;6.85;;;2.40;;
24357;SDS011;13668;52.154;5.580;2022-09-09T08:19:42;7.30;;;2.83;;
24357;SDS011;13668;52.154;5.580;2022-09-09T08:22:09;7.00;;;2.80;;
24357;SDS011;13668;52.154;5.580;2022-09-09T08:24:35;5.85;;;2.75;;
24357;SDS011;13668;52.154;5.580;2022-09-09T08:27:01;3.60;;;2.08;;
24357;SDS011;13668;52.154;5.580;2022-09-09T08:29:27;5.70;;;2.30;;
24357;SDS011;13668;52.154;5.580;2022-09-09T08:31:54;9.30;;;3.00;;
24357;SDS011;13668;52.154;5.580;2022-09-09T08:34:22;6.70;;;2.67;;
24357;SDS011;13668;52.154;5.580;2022-09-09T08:36:48;5.15;;;2.53;;
24357;SDS011;13668;52.154;5.580;2022-09-09T08:39:16;6.00;;;2.72;;
24357;SDS011;13668;52.154;5.580;2022-09-09T08:44:39;8.20;;;2.40;;
24357;SDS011;13668;52.154;5.580;2022-09-09T08:54:58;8.95;;;3.00;;
24357;SDS011;13668;52.154;5.580;2022-09-09T08:57:25;8.57;;;2.63;;
24357;SDS011;13668;52.154;5.580;2022-09-09T08:59:52;6.50;;;2.42;;
24357;SDS011;13668;52.154;5.580;2022-09-09T09:07:21;4.90;;;2.47;;
24357;SDS011;13668;52.154;5.580;2022-09-09T09:09:57;7.72;;;2.58;;
24357;SDS011;13668;52.154;5.580;2022-09-09T09:12:27;6.30;;;2.10;;
24357;SDS011;13668;52.154;5.580;2022-09-09T09:14:54;6.47;;;2.67;;
24357;SDS011;13668;52.154;5.580;2022-09-09T09:17:23;4.10;;;2.25;;
24357;SDS011;13668;52.154;5.580;2022-09-09T09:19:51;5.47;;;2.45;;
24357;SDS011;13668;52.154;5.580;2022-09-09T09:22:30;6.93;;;2.60;;
24357;SDS011;13668;52.154;5.580;2022-09-09T09:25:03;8.65;;;2.40;;
24357;SDS011;13668;52.154;5.580;2022-09-09T09:27:43;6.20;;;2.63;;
24357;SDS011;13668;52.154;5.580;2022-09-09T09:30:18;9.48;;;2.70;;
24357;SDS011;13668;52.154;5.580;2022-09-09T09:32:54;6.60;;;2.53;;
24357;SDS011;13668;52.154;5.580;2022-09-09T09:35:21;8.52;;;2.42;;
24357;SDS011;13668;52.154;5.580;2022-09-09T09:37:47;5.28;;;2.65;;
24357;SDS011;13668;52.154;5.580;2022-09-09T09:40:14;5.72;;;2.28;;
24357;SDS011;13668;52.154;5.580;2022-09-09T09:42:51;12.55;;;2.78;;
24357;SDS011;13668;52.154;5.580;2022-09-09T09:45:32;6.28;;;2.20;;
24357;SDS011;13668;52.154;5.580;2022-09-09T09:48:00;7.85;;;2.22;;
24357;SDS011;13668;52.154;5.580;2022-09-09T09:50:27;4.72;;;1.95;;
24357;SDS011;13668;52.154;5.580;2022-09-09T09:52:53;10.15;;;2.72;;
24357;SDS011;13668;52.154;5.580;2022-09-09T09:55:20;3.97;;;2.13;;
24357;SDS011;13668;52.154;5.580;2022-09-09T09:57:47;5.18;;;1.95;;
24357;SDS011;13668;52.154;5.580;2022-09-09T10:00:14;6.30;;;2.15;;
24357;SDS011;13668;52.154;5.580;2022-09-09T10:02:42;6.35;;;1.95;;
24357;SDS011;13668;52.154;5.580;2022-09-09T10:05:13;7.18;;;2.33;;
24357;SDS011;13668;52.154;5.580;2022-09-09T10:07:39;5.75;;;2.25;;
24357;SDS011;13668;52.154;5.580;2022-09-09T10:10:08;7.28;;;2.05;;
24357;SDS011;13668;52.154;5.580;2022-09-09T10:12:49;6.00;;;2.15;;
24357;SDS011;13668;52.154;5.580;2022-09-09T10:15:24;8.43;;;2.13;;
24357;SDS011;13668;52.154;5.580;2022-09-09T10:18:15;7.00;;;2.15;;
24357;SDS011;13668;52.154;5.580;2022-09-09T10:25:57;6.25;;;2.10;;
24357;SDS011;13668;52.154;5.580;2022-09-09T10:28:30;6.55;;;2.60;;
24357;SDS011;13668;52.154;5.580;2022-09-09T10:31:09;5.93;;;2.75;;
24357;SDS011;13668;52.154;5.580;2022-09-09T10:36:13;6.43;;;2.80;;
24357;SDS011;13668;52.154;5.580;2022-09-09T10:38:46;6.40;;;2.20;;
24357;SDS011;13668;52.154;5.580;2022-09-09T10:41:15;8.38;;;2.22;;
24357;SDS011;13668;52.154;5.580;2022-09-09T10:46:21;5.30;;;1.90;;
24357;SDS011;13668;52.154;5.580;2022-09-09T10:49:10;7.93;;;2.20;;
24357;SDS011;13668;52.154;5.580;2022-09-09T10:56:44;6.53;;;2.80;;
24357;SDS011;13668;52.154;5.580;2022-09-09T10:59:19;5.15;;;2.85;;
24357;SDS011;13668;52.154;5.580;2022-09-09T11:04:34;6.32;;;2.60;;
24357;SDS011;13668;52.154;5.580;2022-09-09T11:07:05;6.05;;;2.83;;
24357;SDS011;13668;52.154;5.580;2022-09-09T11:09:33;6.03;;;2.55;;
24357;SDS011;13668;52.154;5.580;2022-09-09T11:12:02;4.68;;;2.50;;
24357;SDS011;13668;52.154;5.580;2022-09-09T11:14:32;8.43;;;3.80;;
24357;SDS011;13668;52.154;5.580;2022-09-09T11:17:02;6.75;;;3.38;;
24357;SDS011;13668;52.154;5.580;2022-09-09T11:21:56;6.88;;;3.25;;
24357;SDS011;13668;52.154;5.580;2022-09-09T11:24:44;4.97;;;2.78;;
24357;SDS011;13668;52.154;5.580;2022-09-09T11:38:04;5.35;;;3.00;;
24357;SDS011;13668;52.154;5.580;2022-09-09T11:40:34;10.05;;;3.63;;
24357;SDS011;13668;52.154;5.580;2022-09-09T11:43:04;6.18;;;3.42;;
24357;SDS011;13668;52.154;5.580;2022-09-09T11:45:32;7.13;;;3.15;;
24357;SDS011;13668;52.154;5.580;2022-09-09T11:48:00;7.85;;;2.90;;
24357;SDS011;13668;52.154;5.580;2022-09-09T11:50:28;4.68;;;2.60;;
24357;SDS011;13668;52.154;5.580;2022-09-09T11:53:05;5.45;;;3.00;;
24357;SDS011;13668;52.154;5.580;2022-09-09T11:55:41;7.85;;;3.15;;
24357;SDS011;13668;52.154;5.580;2022-09-09T12:03:30;8.70;;;3.00;;
24357;SDS011;13668;52.154;5.580;2022-09-09T12:05:52;6.20;;;2.88;;
24357;SDS011;13668;52.154;5.580;2022-09-09T12:08:21;6.15;;;3.20;;
24357;SDS011;13668;52.154;5.580;2022-09-09T12:10:53;4.68;;;2.78;;
24357;SDS011;13668;52.154;5.580;2022-09-09T12:13:21;6.43;;;2.58;;
24357;SDS011;13668;52.154;5.580;2022-09-09T12:15:52;3.45;;;2.50;;
24357;SDS011;13668;52.154;5.580;2022-09-09T12:18:35;6.65;;;2.60;;
24357;SDS011;13668;52.154;5.580;2022-09-09T12:21:15;6.20;;;2.83;;
24357;SDS011;13668;52.154;5.580;2022-09-09T12:23:50;5.70;;;2.22;;
24357;SDS011;13668;52.154;5.580;2022-09-09T12:26:23;3.88;;;2.10;;
24357;SDS011;13668;52.154;5.580;2022-09-09T12:29:39;5.03;;;2.30;;
24357;SDS011;13668;52.154;5.580;2022-09-09T12:31:44;6.03;;;2.60;;
24357;SDS011;13668;52.154;5.580;2022-09-09T12:34:36;6.22;;;2.38;;
24357;SDS011;13668;52.154;5.580;2022-09-09T12:37:27;5.28;;;3.15;;
24357;SDS011;13668;52.154;5.580;2022-09-09T12:39:57;3.88;;;2.75;;
24357;SDS011;13668;52.154;5.580;2022-09-09T12:42:24;5.47;;;3.25;;
24357;SDS011;13668;52.154;5.580;2022-09-09T12:44:54;7.45;;;3.00;;
24357;SDS011;13668;52.154;5.580;2022-09-09T12:47:22;7.80;;;2.97;;
24357;SDS011;13668;52.154;5.580;2022-09-09T12:49:49;8.38;;;3.90;;
24357;SDS011;13668;52.154;5.580;2022-09-09T12:54:43;3.65;;;2.50;;
24357;SDS011;13668;52.154;5.580;2022-09-09T12:57:11;6.13;;;3.38;;
24357;SDS011;13668;52.154;5.580;2022-09-09T12:59:39;5.47;;;3.25;;
24357;SDS011;13668;52.154;5.580;2022-09-09T13:02:11;4.22;;;2.70;;
24357;SDS011;13668;52.154;5.580;2022-09-09T13:04:42;4.55;;;2.67;;
24357;SDS011;13668;52.154;5.580;2022-09-09T13:07:09;5.80;;;2.97;;
24357;SDS011;13668;52.154;5.580;2022-09-09T13:09:36;7.07;;;2.83;;
24357;SDS011;13668;52.154;5.580;2022-09-09T13:12:02;5.32;;;2.58;;
24357;SDS011;13668;52.154;5.580;2022-09-09T13:14:33;5.57;;;3.13;;
24357;SDS011;13668;52.154;5.580;2022-09-09T13:17:02;5.97;;;2.50;;
24357;SDS011;13668;52.154;5.580;2022-09-09T13:19:29;5.72;;;2.45;;
24357;SDS011;13668;52.154;5.580;2022-09-09T13:21:56;2.35;;;2.15;;
24357;SDS011;13668;52.154;5.580;2022-09-09T13:24:32;5.65;;;3.17;;
24357;SDS011;13668;52.154;5.580;2022-09-09T13:27:00;6.57;;;2.78;;
24357;SDS011;13668;52.154;5.580;2022-09-09T13:29:27;5.65;;;2.33;;
24357;SDS011;13668;52.154;5.580;2022-09-09T13:31:53;5.13;;;2.63;;
24357;SDS011;13668;52.154;5.580;2022-09-09T13:34:27;4.13;;;2.17;;
24357;SDS011;13668;52.154;5.580;2022-09-09T13:37:00;3.58;;;2.58;;
24357;SDS011;13668;52.154;5.580;2022-09-09T13:39:36;3.80;;;2.55;;
24357;SDS011;13668;52.154;5.580;2022-09-09T13:42:03;6.43;;;2.50;;
24357;SDS011;13668;52.154;5.580;2022-09-09T13:44:34;5.13;;;2.92;;
24357;SDS011;13668;52.154;5.580;2022-09-09T13:47:05;6.70;;;2.95;;
24357;SDS011;13668;52.154;5.580;2022-09-09T13:49:32;7.57;;;3.35;;
24357;SDS011;13668;52.154;5.580;2022-09-09T13:54:36;5.15;;;2.83;;
24357;SDS011;13668;52.154;5.580;2022-09-09T13:57:02;6.30;;;2.50;;
24357;SDS011;13668;52.154;5.580;2022-09-09T13:59:29;6.20;;;3.50;;
24357;SDS011;13668;52.154;5.580;2022-09-09T14:01:56;6.85;;;2.97;;
24357;SDS011;13668;52.154;5.580;2022-09-09T14:04:22;5.35;;;3.22;;
24357;SDS011;13668;52.154;5.580;2022-09-09T14:06:49;4.15;;;2.63;;
24357;SDS011;13668;52.154;5.580;2022-09-09T14:09:16;5.78;;;3.17;;
24357;SDS011;13668;52.154;5.580;2022-09-09T14:11:42;2.85;;;2.38;;
24357;SDS011;13668;52.154;5.580;2022-09-09T14:14:08;4.57;;;3.10;;
24357;SDS011;13668;52.154;5.580;2022-09-09T14:16:34;4.38;;;2.97;;
24357;SDS011;13668;52.154;5.580;2022-09-09T14:19:02;5.45;;;2.92;;
24357;SDS011;13668;52.154;5.580;2022-09-09T14:21:28;4.25;;;2.50;;
24357;SDS011;13668;52.154;5.580;2022-09-09T14:23:53;7.55;;;2.53;;
24357;SDS011;13668;52.154;5.580;2022-09-09T14:26:20;7.75;;;3.78;;
24357;SDS011;13668;52.154;5.580;2022-09-09T14:28:46;6.72;;;2.72;;
24357;SDS011;13668;52.154;5.580;2022-09-09T14:31:13;4.70;;;2.72;;
24357;SDS011;13668;52.154;5.580;2022-09-09T14:33:39;5.07;;;2.20;;
24357;SDS011;13668;52.154;5.580;2022-09-09T14:36:05;6.68;;;3.28;;
24357;SDS011;13668;52.154;5.580;2022-09-09T14:38:32;6.15;;;2.38;;
24357;SDS011;13668;52.154;5.580;2022-09-09T14:40:59;4.38;;;2.10;;
24357;SDS011;13668;52.154;5.580;2022-09-09T14:43:26;5.47;;;2.20;;
24357;SDS011;13668;52.154;5.580;2022-09-09T14:45:52;3.42;;;2.28;;
24357;SDS011;13668;52.154;5.580;2022-09-09T14:48:18;3.80;;;2.53;;
24357;SDS011;13668;52.154;5.580;2022-09-09T14:50:44;5.60;;;3.05;;
24357;SDS011;13668;52.154;5.580;2022-09-09T14:53:10;5.72;;;2.83;;
24357;SDS011;13668;52.154;5.580;2022-09-09T14:55:36;3.95;;;2.65;;
24357;SDS011;13668;52.154;5.580;2022-09-09T14:58:03;5.07;;;2.70;;
24357;SDS011;13668;52.154;5.580;2022-09-09T15:00:29;7.43;;;2.63;;
24357;SDS011;13668;52.154;5.580;2022-09-09T15:02:55;5.28;;;2.05;;
24357;SDS011;13668;52.154;5.580;2022-09-09T15:05:21;4.20;;;2.13;;
24357;SDS011;13668;52.154;5.580;2022-09-09T15:07:49;6.63;;;2.47;;
24357;SDS011;13668;52.154;5.580;2022-09-09T15:10:15;4.00;;;2.20;;
24357;SDS011;13668;52.154;5.580;2022-09-09T15:12:42;5.70;;;2.92;;
24357;SDS011;13668;52.154;5.580;2022-09-09T15:15:08;5.13;;;2.30;;
24357;SDS011;13668;52.154;5.580;2022-09-09T15:17:35;6.63;;;2.80;;
24357;SDS011;13668;52.154;5.580;2022-09-09T15:20:02;4.03;;;2.42;;
24357;SDS011;13668;52.154;5.580;2022-09-09T15:22:30;4.93;;;2.90;;
24357;SDS011;13668;52.154;5.580;2022-09-09T15:24:56;5.38;;;3.20;;
24357;SDS011;13668;52.154;5.580;2022-09-09T15:27:22;4.05;;;3.25;;
24357;SDS011;13668;52.154;5.580;2022-09-09T15:29:48;3.42;;;3.13;;
24357;SDS011;13668;52.154;5.580;2022-09-09T15:32:16;6.57;;;2.90;;
24357;SDS011;13668;52.154;5.580;2022-09-09T15:34:42;3.13;;;2.50;;
24357;SDS011;13668;52.154;5.580;2022-09-09T15:37:09;2.58;;;2.13;;
24357;SDS011;13668;52.154;5.580;2022-09-09T15:39:37;4.13;;;2.38;;
24357;SDS011;13668;52.154;5.580;2022-09-09T15:42:03;5.72;;;2.63;;
24357;SDS011;13668;52.154;5.580;2022-09-09T15:44:29;4.85;;;2.40;;
24357;SDS011;13668;52.154;5.580;2022-09-09T15:46:55;5.05;;;2.83;;
24357;SDS011;13668;52.154;5.580;2022-09-09T15:49:24;5.10;;;3.85;;
24357;SDS011;13668;52.154;5.580;2022-09-09T15:52:00;3.53;;;2.95;;
24357;SDS011;13668;52.154;5.580;2022-09-09T15:54:33;5.97;;;3.08;;
24357;SDS011;13668;52.154;5.580;2022-09-09T15:57:01;4.07;;;2.05;;
24357;SDS011;13668;52.154;5.580;2022-09-09T15:59:28;4.95;;;2.60;;
24357;SDS011;13668;52.154;5.580;2022-09-09T16:01:55;1.75;;;1.63;;
24357;SDS011;13668;52.154;5.580;2022-09-09T16:04:21;2.42;;;1.10;;
24357;SDS011;13668;52.154;5.580;2022-09-09T16:06:52;1.35;;;1.25;;
24357;SDS011;13668;52.154;5.580;2022-09-09T16:09:18;2.42;;;1.48;;
24357;SDS011;13668;52.154;5.580;2022-09-09T16:11:45;2.10;;;1.60;;
24357;SDS011;13668;52.154;5.580;2022-09-09T16:14:12;2.05;;;1.75;;
24357;SDS011;13668;52.154;5.580;2022-09-09T16:16:40;2.83;;;1.60;;
24357;SDS011;13668;52.154;5.580;2022-09-09T16:19:07;3.78;;;2.00;;
24357;SDS011;13668;52.154;5.580;2022-09-09T16:21:44;2.92;;;2.20;;
24357;SDS011;13668;52.154;5.580;2022-09-09T16:24:12;3.75;;;2.30;;
24357;SDS011;13668;52.154;5.580;2022-09-09T16:26:39;3.08;;;2.10;;
24357;SDS011;13668;52.154;5.580;2022-09-09T16:29:06;5.57;;;2.60;;